Weather at Melbourne Moorabbin Airport

Public forecast

Using degrees Celsius for public forecast. Weather courtesy of forecast.io.

Closest aviation weather report (METAR) to Melbourne Moorabbin Airport

Closest report is Melbourne Essendon Airport, 17.6 nm (32.7 km) NNW. Retrieved 2022/01/18 20:00 UTC (2 minutes ago):

YMEN 182000Z AUTO 14007KT 9999 // NCD 16/13 Q1019

Closest aviation forecast (TAF) to Melbourne Moorabbin Airport

Closest forecast is Melbourne International Airport, 21.9 nm (40.6 km) NW. Retrieved 2022/01/18 21:00 UTC (0 seconds ago):

TAF YMML 182007Z 1821/2000 16008KT 9999 SCT014 FM182200 13012KT 9999 FEW025 FM190300 14016G26KT CAVOK FM191100 14010KT CAVOK FM191500 28005KT CAVOK